CDT,Max TemperatureF,Mean TemperatureF,Min TemperatureF,Max Dew PointF,MeanDew PointF,Min DewpointF,Max Humidity, Mean Humidity, Min Humidity, Max Sea Level PressureIn, Mean Sea Level PressureIn, Min Sea Level PressureIn, Max VisibilityMiles, Mean VisibilityMiles, Min VisibilityMiles, Max Wind SpeedMPH, Mean Wind SpeedMPH, Max Gust SpeedMPH,PrecipitationIn, CloudCover, Events, WindDirDegrees
2012-10-1,57,50,42,48,43,39,100,86,72,29.92,29.90,29.87,10,10,10,13,5,16,0.00,0,,74
2012-10-2,,,,,,,,,,,,,,,,,,,,,,
2012-10-3,64,60,57,55,54,52,94,78,64,30.08,30.03,30.00,10,10,2,16,11,21,0.00,6,,200
2012-10-4,78,66,53,57,53,48,88,67,42,30.15,30.10,30.06,10,10,10,23,10,30,0.00,3,,225
2012-10-5,59,50,41,54,44,37,93,88,77,30.17,30.12,30.07,10,10,9,15,10,23,0.97,7,,297
2012-10-6,,,,,,,,,,,,,,,,,,,0.00,,,-1
2012-10-7,,,,,,,,,,,,,,,,,,,,,,
2012-10-8,57,42,26,36,28,25,93,48,29,30.23,30.18,30.10,10,10,10,13,6,18,0.00,0,,210
2012-10-9,62,50,37,39,38,34,87,52,39,30.10,29.98,29.89,10,10,10,21,13,26,0.00,0,,210
2012-10-10,,,,,,,,,,,,,,,,,,,0.00,,,-1
2012-10-11,60,45,30,37,33,27,93,54,34,30.25,30.19,30.12,10,10,10,18,9,25,0.00,0,,227
2012-10-12,55,47,39,43,33,27,82,59,33,30.42,30.33,30.19,10,10,10,18,10,22,0.00,1,,66
2012-10-13,66,52,37,63,47,28,100,77,61,30.30,30.10,29.91,10,9,3,17,9,22,0.50,4,,176
2012-10-14,66,65,64,63,62,61,94,88,83,29.90,29.82,29.72,10,10,7,22,15,32,0.00,3,,184
2012-10-15,57,48,39,43,39,37,93,71,51,29.98,29.95,29.91,10,10,10,17,9,23,0.00,1,,332
2012-10-16,66,50,33,46,41,32,100,70,45,29.99,29.86,29.70,10,9,3,18,7,24,0.00,0,,167
2012-10-17,71,60,50,54,50,46,88,70,43,29.70,29.60,29.42,10,10,5,28,14,36,0.29,4,Thunderstorm,184
2012-10-18,60,53,46,54,41,30,94,66,34,29.63,29.53,29.39,10,10,5,28,16,36,0.27,3,,229
2012-10-19,48,46,44,46,44,41,93,88,81,29.66,29.56,29.51,10,10,3,16,11,21,0.09,7,,220
2012-10-20,53,46,39,45,41,36,93,82,67,29.97,29.82,29.67,10,10,10,18,10,21,0.00,5,,261
2012-10-21,66,50,33,48,43,34,100,79,52,30.09,30.04,29.97,10,8,0,12,6,17,0.00,0,,164
2012-10-22,66,57,48,61,53,45,94,82,64,30.05,30.01,29.96,10,10,10,14,7,18,0.00,4,Thunderstorm,166
2012-10-23,64,62,59,61,56,54,94,81,68,30.05,29.98,29.95,10,10,8,17,9,26,0.60,6,Thunderstorm,204
2012-10-24,78,69,60,63,57,54,77,66,50,30.04,29.99,29.95,10,10,5,15,9,21,0.00,1,,196
2012-10-25,77,65,51,59,54,46,82,69,50,29.98,29.91,29.84,10,10,10,22,12,31,0.00,1,,196
2012-10-26,51,46,42,46,39,34,93,75,58,30.26,30.16,29.98,10,10,7,23,15,26,0.16,5,,351
2012-10-27,53,45,37,36,32,30,75,56,41,30.22,30.19,30.13,10,10,10,17,13,23,0.00,0,,22
2012-10-28,48,42,35,34,31,28,93,63,50,30.19,30.15,30.12,10,10,10,20,12,28,0.00,4,,10
2012-10-29,48,42,35,32,27,21,75,56,34,30.15,30.05,29.82,10,10,10,28,16,36,0.00,0,,351
2012-10-30,44,42,39,39,35,27,93,78,53,29.81,29.67,29.62,10,9,2,31,24,45,0.11,6,,341
2012-10-31,41,38,35,39,34,30,100,82,65,29.82,29.75,29.68,10,9,3,21,15,28,0.09,8,,304